sensor_id;sensor_type;location;lat;lon;timestamp;P1;durP1;ratioP1;P2;durP2;ratioP2
53269;SDS011;39159;45.634;9.420;2022-07-18T00:00:00;6.32;;;3.65;;
53269;SDS011;39159;45.634;9.420;2022-07-18T00:02:26;7.00;;;4.00;;
53269;SDS011;39159;45.634;9.420;2022-07-18T00:04:51;4.85;;;3.90;;
53269;SDS011;39159;45.634;9.420;2022-07-18T00:07:17;5.13;;;3.80;;
53269;SDS011;39159;45.634;9.420;2022-07-18T00:09:43;9.45;;;3.90;;
53269;SDS011;39159;45.634;9.420;2022-07-18T00:12:09;6.57;;;3.90;;
53269;SDS011;39159;45.634;9.420;2022-07-18T00:14:36;8.30;;;3.97;;
53269;SDS011;39159;45.634;9.420;2022-07-18T00:17:02;7.80;;;4.25;;
53269;SDS011;39159;45.634;9.420;2022-07-18T00:19:28;5.90;;;3.45;;
53269;SDS011;39159;45.634;9.420;2022-07-18T00:21:54;6.93;;;3.90;;
53269;SDS011;39159;45.634;9.420;2022-07-18T00:24:20;6.80;;;3.55;;
53269;SDS011;39159;45.634;9.420;2022-07-18T00:26:45;6.63;;;3.90;;
53269;SDS011;39159;45.634;9.420;2022-07-18T00:29:11;7.78;;;3.65;;
53269;SDS011;39159;45.634;9.420;2022-07-18T00:31:36;5.28;;;3.95;;
53269;SDS011;39159;45.634;9.420;2022-07-18T00:34:02;7.70;;;3.80;;
53269;SDS011;39159;45.634;9.420;2022-07-18T00:36:28;7.20;;;3.83;;
53269;SDS011;39159;45.634;9.420;2022-07-18T00:38:54;5.63;;;3.78;;
53269;SDS011;39159;45.634;9.420;2022-07-18T00:41:20;5.40;;;4.00;;
53269;SDS011;39159;45.634;9.420;2022-07-18T00:43:46;6.20;;;3.70;;
53269;SDS011;39159;45.634;9.420;2022-07-18T00:46:11;5.90;;;4.00;;
53269;SDS011;39159;45.634;9.420;2022-07-18T00:48:38;5.10;;;3.63;;
53269;SDS011;39159;45.634;9.420;2022-07-18T00:51:04;5.97;;;3.35;;
53269;SDS011;39159;45.634;9.420;2022-07-18T00:53:29;5.03;;;3.50;;
53269;SDS011;39159;45.634;9.420;2022-07-18T00:55:55;6.18;;;3.25;;
53269;SDS011;39159;45.634;9.420;2022-07-18T00:58:21;5.70;;;3.78;;
53269;SDS011;39159;45.634;9.420;2022-07-18T01:00:46;4.32;;;3.90;;
53269;SDS011;39159;45.634;9.420;2022-07-18T01:03:31;4.95;;;4.07;;
53269;SDS011;39159;45.634;9.420;2022-07-18T01:05:56;4.70;;;4.05;;
53269;SDS011;39159;45.634;9.420;2022-07-18T01:08:22;4.15;;;3.55;;
53269;SDS011;39159;45.634;9.420;2022-07-18T01:10:47;6.38;;;3.90;;
53269;SDS011;39159;45.634;9.420;2022-07-18T01:13:13;6.82;;;3.78;;
53269;SDS011;39159;45.634;9.420;2022-07-18T01:15:39;4.70;;;3.63;;
53269;SDS011;39159;45.634;9.420;2022-07-18T01:18:04;6.28;;;3.90;;
53269;SDS011;39159;45.634;9.420;2022-07-18T01:20:30;5.50;;;4.22;;
53269;SDS011;39159;45.634;9.420;2022-07-18T01:22:57;8.07;;;3.67;;
53269;SDS011;39159;45.634;9.420;2022-07-18T01:25:23;6.80;;;4.32;;
53269;SDS011;39159;45.634;9.420;2022-07-18T01:27:49;5.30;;;4.03;;
53269;SDS011;39159;45.634;9.420;2022-07-18T01:30:14;4.05;;;3.65;;
53269;SDS011;39159;45.634;9.420;2022-07-18T01:32:40;6.28;;;4.03;;
53269;SDS011;39159;45.634;9.420;2022-07-18T01:35:06;6.55;;;4.22;;
53269;SDS011;39159;45.634;9.420;2022-07-18T01:37:32;5.65;;;3.80;;
53269;SDS011;39159;45.634;9.420;2022-07-18T01:39:58;5.47;;;3.85;;
53269;SDS011;39159;45.634;9.420;2022-07-18T01:42:23;5.03;;;3.70;;
53269;SDS011;39159;45.634;9.420;2022-07-18T01:44:49;4.45;;;3.53;;
53269;SDS011;39159;45.634;9.420;2022-07-18T01:47:14;6.20;;;3.83;;
53269;SDS011;39159;45.634;9.420;2022-07-18T01:49:40;5.05;;;3.70;;
53269;SDS011;39159;45.634;9.420;2022-07-18T01:52:06;4.68;;;3.58;;
53269;SDS011;39159;45.634;9.420;2022-07-18T01:54:33;4.28;;;3.45;;
53269;SDS011;39159;45.634;9.420;2022-07-18T01:57:00;4.97;;;3.70;;
53269;SDS011;39159;45.634;9.420;2022-07-18T01:59:26;4.65;;;4.22;;
53269;SDS011;39159;45.634;9.420;2022-07-18T02:01:52;4.97;;;3.88;;
53269;SDS011;39159;45.634;9.420;2022-07-18T02:04:17;4.90;;;3.42;;
53269;SDS011;39159;45.634;9.420;2022-07-18T02:06:43;6.68;;;4.00;;
53269;SDS011;39159;45.634;9.420;2022-07-18T02:09:08;7.03;;;4.15;;
53269;SDS011;39159;45.634;9.420;2022-07-18T02:11:34;7.68;;;4.00;;
53269;SDS011;39159;45.634;9.420;2022-07-18T02:14:00;6.43;;;3.83;;
53269;SDS011;39159;45.634;9.420;2022-07-18T02:16:26;5.25;;;3.88;;
53269;SDS011;39159;45.634;9.420;2022-07-18T02:18:52;4.82;;;4.07;;
53269;SDS011;39159;45.634;9.420;2022-07-18T02:21:18;5.53;;;4.25;;
53269;SDS011;39159;45.634;9.420;2022-07-18T02:23:43;4.72;;;4.00;;
53269;SDS011;39159;45.634;9.420;2022-07-18T02:26:09;7.97;;;4.32;;
53269;SDS011;39159;45.634;9.420;2022-07-18T02:28:36;5.72;;;3.95;;
53269;SDS011;39159;45.634;9.420;2022-07-18T02:31:02;6.82;;;4.28;;
53269;SDS011;39159;45.634;9.420;2022-07-18T02:33:28;5.18;;;3.95;;
53269;SDS011;39159;45.634;9.420;2022-07-18T02:35:53;5.07;;;4.13;;
53269;SDS011;39159;45.634;9.420;2022-07-18T02:38:19;5.13;;;4.07;;
53269;SDS011;39159;45.634;9.420;2022-07-18T02:40:44;4.90;;;4.22;;
53269;SDS011;39159;45.634;9.420;2022-07-18T02:43:10;6.07;;;4.00;;
53269;SDS011;39159;45.634;9.420;2022-07-18T02:45:35;6.40;;;4.38;;
53269;SDS011;39159;45.634;9.420;2022-07-18T02:48:00;4.55;;;3.83;;
53269;SDS011;39159;45.634;9.420;2022-07-18T02:50:26;5.30;;;4.45;;
53269;SDS011;39159;45.634;9.420;2022-07-18T02:52:52;7.55;;;4.05;;
53269;SDS011;39159;45.634;9.420;2022-07-18T02:55:17;4.97;;;4.05;;
53269;SDS011;39159;45.634;9.420;2022-07-18T02:57:42;4.90;;;4.10;;
53269;SDS011;39159;45.634;9.420;2022-07-18T03:00:09;6.97;;;4.60;;
53269;SDS011;39159;45.634;9.420;2022-07-18T03:02:37;7.00;;;4.30;;
53269;SDS011;39159;45.634;9.420;2022-07-18T03:05:03;5.70;;;4.65;;
53269;SDS011;39159;45.634;9.420;2022-07-18T03:07:30;4.47;;;3.88;;
53269;SDS011;39159;45.634;9.420;2022-07-18T03:09:56;7.05;;;4.68;;
53269;SDS011;39159;45.634;9.420;2022-07-18T03:12:21;7.72;;;4.65;;
53269;SDS011;39159;45.634;9.420;2022-07-18T03:14:47;7.97;;;4.30;;
53269;SDS011;39159;45.634;9.420;2022-07-18T03:17:13;5.40;;;4.90;;
53269;SDS011;39159;45.634;9.420;2022-07-18T03:19:38;5.57;;;4.97;;
53269;SDS011;39159;45.634;9.420;2022-07-18T03:22:04;8.85;;;5.30;;
53269;SDS011;39159;45.634;9.420;2022-07-18T03:24:30;6.97;;;5.00;;
53269;SDS011;39159;45.634;9.420;2022-07-18T03:26:56;5.53;;;5.00;;
53269;SDS011;39159;45.634;9.420;2022-07-18T03:29:21;6.95;;;5.18;;
53269;SDS011;39159;45.634;9.420;2022-07-18T03:31:48;7.13;;;5.35;;
53269;SDS011;39159;45.634;9.420;2022-07-18T03:34:13;7.07;;;5.07;;
53269;SDS011;39159;45.634;9.420;2022-07-18T03:36:39;9.10;;;5.65;;
53269;SDS011;39159;45.634;9.420;2022-07-18T03:39:04;9.70;;;5.38;;
53269;SDS011;39159;45.634;9.420;2022-07-18T03:41:31;11.77;;;5.78;;
53269;SDS011;39159;45.634;9.420;2022-07-18T03:43:57;7.70;;;5.90;;
53269;SDS011;39159;45.634;9.420;2022-07-18T03:46:22;7.20;;;5.55;;
53269;SDS011;39159;45.634;9.420;2022-07-18T03:48:48;23.55;;;6.07;;
53269;SDS011;39159;45.634;9.420;2022-07-18T03:51:13;10.13;;;5.97;;
53269;SDS011;39159;45.634;9.420;2022-07-18T03:53:39;8.02;;;5.75;;
53269;SDS011;39159;45.634;9.420;2022-07-18T03:56:05;10.52;;;5.65;;
53269;SDS011;39159;45.634;9.420;2022-07-18T03:58:31;8.40;;;5.20;;
53269;SDS011;39159;45.634;9.420;2022-07-18T04:00:56;7.20;;;5.72;;
53269;SDS011;39159;45.634;9.420;2022-07-18T04:03:22;7.32;;;5.55;;
53269;SDS011;39159;45.634;9.420;2022-07-18T04:05:48;9.20;;;6.88;;
53269;SDS011;39159;45.634;9.420;2022-07-18T04:08:14;5.97;;;5.25;;
53269;SDS011;39159;45.634;9.420;2022-07-18T04:10:39;8.63;;;6.07;;
53269;SDS011;39159;45.634;9.420;2022-07-18T04:13:05;9.63;;;6.63;;
53269;SDS011;39159;45.634;9.420;2022-07-18T04:15:32;8.88;;;6.20;;
53269;SDS011;39159;45.634;9.420;2022-07-18T04:17:57;29.55;;;7.80;;
53269;SDS011;39159;45.634;9.420;2022-07-18T04:20:23;11.50;;;6.38;;
53269;SDS011;39159;45.634;9.420;2022-07-18T04:22:49;6.97;;;5.85;;
53269;SDS011;39159;45.634;9.420;2022-07-18T04:25:20;9.63;;;6.40;;
53269;SDS011;39159;45.634;9.420;2022-07-18T04:27:46;10.10;;;6.30;;
53269;SDS011;39159;45.634;9.420;2022-07-18T04:30:15;26.75;;;7.22;;
53269;SDS011;39159;45.634;9.420;2022-07-18T04:32:42;11.75;;;6.90;;
53269;SDS011;39159;45.634;9.420;2022-07-18T04:35:08;13.05;;;6.47;;
53269;SDS011;39159;45.634;9.420;2022-07-18T04:37:34;11.00;;;6.68;;
53269;SDS011;39159;45.634;9.420;2022-07-18T04:40:00;8.75;;;6.70;;
53269;SDS011;39159;45.634;9.420;2022-07-18T04:42:26;10.55;;;6.97;;
53269;SDS011;39159;45.634;9.420;2022-07-18T04:44:52;9.65;;;6.63;;
53269;SDS011;39159;45.634;9.420;2022-07-18T04:47:18;9.63;;;6.53;;
53269;SDS011;39159;45.634;9.420;2022-07-18T04:49:43;9.25;;;6.85;;
53269;SDS011;39159;45.634;9.420;2022-07-18T04:52:09;8.60;;;6.30;;
53269;SDS011;39159;45.634;9.420;2022-07-18T04:54:34;7.47;;;6.43;;
53269;SDS011;39159;45.634;9.420;2022-07-18T04:57:00;9.82;;;6.75;;
53269;SDS011;39159;45.634;9.420;2022-07-18T04:59:25;7.55;;;6.03;;
53269;SDS011;39159;45.634;9.420;2022-07-18T05:01:50;8.90;;;6.65;;
53269;SDS011;39159;45.634;9.420;2022-07-18T05:04:16;9.70;;;6.68;;
53269;SDS011;39159;45.634;9.420;2022-07-18T05:06:42;10.57;;;6.35;;
53269;SDS011;39159;45.634;9.420;2022-07-18T05:09:07;9.60;;;6.88;;
53269;SDS011;39159;45.634;9.420;2022-07-18T05:11:33;12.00;;;6.57;;
53269;SDS011;39159;45.634;9.420;2022-07-18T05:13:58;11.23;;;6.45;;
53269;SDS011;39159;45.634;9.420;2022-07-18T05:16:23;6.47;;;5.60;;
53269;SDS011;39159;45.634;9.420;2022-07-18T05:18:49;8.38;;;5.93;;
53269;SDS011;39159;45.634;9.420;2022-07-18T05:21:14;8.07;;;6.18;;
53269;SDS011;39159;45.634;9.420;2022-07-18T05:23:40;7.93;;;5.53;;
53269;SDS011;39159;45.634;9.420;2022-07-18T05:26:05;9.88;;;6.20;;
53269;SDS011;39159;45.634;9.420;2022-07-18T05:28:31;12.63;;;6.63;;
53269;SDS011;39159;45.634;9.420;2022-07-18T05:30:56;8.75;;;5.97;;
53269;SDS011;39159;45.634;9.420;2022-07-18T05:33:22;8.88;;;6.03;;
53269;SDS011;39159;45.634;9.420;2022-07-18T05:35:47;8.27;;;6.03;;
53269;SDS011;39159;45.634;9.420;2022-07-18T05:38:12;10.02;;;5.45;;
53269;SDS011;39159;45.634;9.420;2022-07-18T05:40:38;9.88;;;5.75;;
53269;SDS011;39159;45.634;9.420;2022-07-18T05:43:03;6.93;;;5.32;;
53269;SDS011;39159;45.634;9.420;2022-07-18T05:45:29;12.18;;;5.70;;
53269;SDS011;39159;45.634;9.420;2022-07-18T05:47:55;7.72;;;5.03;;
53269;SDS011;39159;45.634;9.420;2022-07-18T05:50:21;10.35;;;4.68;;
53269;SDS011;39159;45.634;9.420;2022-07-18T05:52:48;8.20;;;4.97;;
53269;SDS011;39159;45.634;9.420;2022-07-18T05:55:13;6.90;;;4.63;;
53269;SDS011;39159;45.634;9.420;2022-07-18T05:57:39;7.65;;;4.85;;
53269;SDS011;39159;45.634;9.420;2022-07-18T06:00:05;6.78;;;4.70;;
53269;SDS011;39159;45.634;9.420;2022-07-18T06:02:32;7.38;;;4.80;;
53269;SDS011;39159;45.634;9.420;2022-07-18T06:04:58;8.57;;;3.75;;
53269;SDS011;39159;45.634;9.420;2022-07-18T06:07:24;8.55;;;4.10;;
53269;SDS011;39159;45.634;9.420;2022-07-18T06:09:50;7.82;;;4.68;;
53269;SDS011;39159;45.634;9.420;2022-07-18T06:12:15;8.02;;;4.38;;
53269;SDS011;39159;45.634;9.420;2022-07-18T06:14:41;11.73;;;4.20;;
53269;SDS011;39159;45.634;9.420;2022-07-18T06:17:06;5.95;;;4.40;;
53269;SDS011;39159;45.634;9.420;2022-07-18T06:19:31;6.60;;;4.15;;
53269;SDS011;39159;45.634;9.420;2022-07-18T06:21:57;7.68;;;4.72;;
53269;SDS011;39159;45.634;9.420;2022-07-18T06:24:24;9.00;;;4.35;;
53269;SDS011;39159;45.634;9.420;2022-07-18T06:26:49;6.30;;;4.40;;
53269;SDS011;39159;45.634;9.420;2022-07-18T06:29:15;11.10;;;6.18;;
53269;SDS011;39159;45.634;9.420;2022-07-18T06:31:40;17.17;;;6.28;;
53269;SDS011;39159;45.634;9.420;2022-07-18T06:34:06;8.95;;;6.03;;
53269;SDS011;39159;45.634;9.420;2022-07-18T06:36:32;10.70;;;6.38;;
53269;SDS011;39159;45.634;9.420;2022-07-18T06:38:58;12.02;;;6.07;;
53269;SDS011;39159;45.634;9.420;2022-07-18T06:41:23;13.13;;;6.00;;
53269;SDS011;39159;45.634;9.420;2022-07-18T06:43:49;8.27;;;5.38;;
53269;SDS011;39159;45.634;9.420;2022-07-18T06:46:14;14.00;;;6.20;;
53269;SDS011;39159;45.634;9.420;2022-07-18T06:48:40;12.60;;;6.18;;
53269;SDS011;39159;45.634;9.420;2022-07-18T06:51:05;9.77;;;6.45;;
53269;SDS011;39159;45.634;9.420;2022-07-18T06:53:33;9.88;;;6.30;;
53269;SDS011;39159;45.634;9.420;2022-07-18T06:55:59;6.38;;;5.63;;
53269;SDS011;39159;45.634;9.420;2022-07-18T06:58:28;8.23;;;6.25;;
53269;SDS011;39159;45.634;9.420;2022-07-18T07:00:55;8.57;;;6.53;;
53269;SDS011;39159;45.634;9.420;2022-07-18T07:03:21;11.48;;;6.85;;
53269;SDS011;39159;45.634;9.420;2022-07-18T07:05:47;11.63;;;7.18;;
53269;SDS011;39159;45.634;9.420;2022-07-18T07:08:12;11.23;;;7.43;;
53269;SDS011;39159;45.634;9.420;2022-07-18T07:10:38;10.85;;;7.32;;
53269;SDS011;39159;45.634;9.420;2022-07-18T07:13:04;12.40;;;6.85;;
53269;SDS011;39159;45.634;9.420;2022-07-18T07:15:30;15.73;;;7.70;;
53269;SDS011;39159;45.634;9.420;2022-07-18T07:17:55;9.68;;;7.45;;
53269;SDS011;39159;45.634;9.420;2022-07-18T07:20:21;8.80;;;6.75;;
53269;SDS011;39159;45.634;9.420;2022-07-18T07:22:47;10.13;;;7.07;;
53269;SDS011;39159;45.634;9.420;2022-07-18T07:25:14;11.45;;;7.10;;
53269;SDS011;39159;45.634;9.420;2022-07-18T07:27:42;11.57;;;7.15;;
53269;SDS011;39159;45.634;9.420;2022-07-18T07:30:08;11.80;;;8.05;;
53269;SDS011;39159;45.634;9.420;2022-07-18T07:32:34;11.35;;;8.02;;
53269;SDS011;39159;45.634;9.420;2022-07-18T07:35:01;8.57;;;6.85;;
53269;SDS011;39159;45.634;9.420;2022-07-18T07:37:28;8.32;;;6.85;;
53269;SDS011;39159;45.634;9.420;2022-07-18T07:39:54;9.63;;;7.25;;
53269;SDS011;39159;45.634;9.420;2022-07-18T07:42:20;13.32;;;6.35;;
53269;SDS011;39159;45.634;9.420;2022-07-18T07:44:46;9.82;;;6.40;;
53269;SDS011;39159;45.634;9.420;2022-07-18T07:47:11;8.38;;;6.57;;
53269;SDS011;39159;45.634;9.420;2022-07-18T07:49:36;10.60;;;6.78;;
53269;SDS011;39159;45.634;9.420;2022-07-18T07:52:02;8.05;;;6.07;;
53269;SDS011;39159;45.634;9.420;2022-07-18T07:54:27;9.13;;;5.88;;
53269;SDS011;39159;45.634;9.420;2022-07-18T07:56:53;9.65;;;5.70;;
53269;SDS011;39159;45.634;9.420;2022-07-18T07:59:18;9.35;;;5.50;;
53269;SDS011;39159;45.634;9.420;2022-07-18T08:01:44;7.22;;;5.80;;
53269;SDS011;39159;45.634;9.420;2022-07-18T08:04:09;9.20;;;5.85;;
53269;SDS011;39159;45.634;9.420;2022-07-18T08:06:35;6.68;;;5.95;;
53269;SDS011;39159;45.634;9.420;2022-07-18T08:09:00;8.38;;;5.72;;
53269;SDS011;39159;45.634;9.420;2022-07-18T08:11:26;7.60;;;5.53;;
53269;SDS011;39159;45.634;9.420;2022-07-18T08:13:51;8.13;;;5.63;;
53269;SDS011;39159;45.634;9.420;2022-07-18T08:16:19;12.73;;;5.93;;
53269;SDS011;39159;45.634;9.420;2022-07-18T08:18:44;10.88;;;6.00;;
53269;SDS011;39159;45.634;9.420;2022-07-18T08:21:09;7.72;;;5.40;;
53269;SDS011;39159;45.634;9.420;2022-07-18T08:23:35;9.77;;;5.50;;
53269;SDS011;39159;45.634;9.420;2022-07-18T08:26:01;9.60;;;5.55;;
53269;SDS011;39159;45.634;9.420;2022-07-18T08:28:27;13.80;;;5.68;;
53269;SDS011;39159;45.634;9.420;2022-07-18T08:30:52;10.02;;;5.30;;
53269;SDS011;39159;45.634;9.420;2022-07-18T08:33:18;6.20;;;5.15;;
53269;SDS011;39159;45.634;9.420;2022-07-18T08:35:43;7.55;;;5.80;;
53269;SDS011;39159;45.634;9.420;2022-07-18T08:38:10;9.32;;;5.53;;
53269;SDS011;39159;45.634;9.420;2022-07-18T08:40:37;11.15;;;6.15;;
53269;SDS011;39159;45.634;9.420;2022-07-18T08:43:03;9.65;;;5.88;;
53269;SDS011;39159;45.634;9.420;2022-07-18T08:45:29;8.00;;;5.68;;
53269;SDS011;39159;45.634;9.420;2022-07-18T08:47:55;11.95;;;5.28;;
53269;SDS011;39159;45.634;9.420;2022-07-18T08:50:20;7.47;;;5.20;;
53269;SDS011;39159;45.634;9.420;2022-07-18T08:52:46;7.65;;;5.50;;
53269;SDS011;39159;45.634;9.420;2022-07-18T08:55:13;7.90;;;5.13;;
53269;SDS011;39159;45.634;9.420;2022-07-18T08:57:39;9.13;;;5.35;;
53269;SDS011;39159;45.634;9.420;2022-07-18T09:00:06;8.50;;;5.15;;
53269;SDS011;39159;45.634;9.420;2022-07-18T09:02:33;9.88;;;5.72;;
53269;SDS011;39159;45.634;9.420;2022-07-18T09:05:03;10.27;;;5.55;;
53269;SDS011;39159;45.634;9.420;2022-07-18T09:07:33;10.70;;;5.80;;
53269;SDS011;39159;45.634;9.420;2022-07-18T09:10:03;6.28;;;5.30;;
53269;SDS011;39159;45.634;9.420;2022-07-18T09:12:30;7.57;;;5.40;;
53269;SDS011;39159;45.634;9.420;2022-07-18T09:14:57;6.85;;;5.63;;
53269;SDS011;39159;45.634;9.420;2022-07-18T09:17:28;9.55;;;5.85;;
53269;SDS011;39159;45.634;9.420;2022-07-18T09:20:10;9.80;;;5.70;;
53269;SDS011;39159;45.634;9.420;2022-07-18T09:22:40;13.00;;;5.85;;
53269;SDS011;39159;45.634;9.420;2022-07-18T09:25:14;7.10;;;5.60;;
53269;SDS011;39159;45.634;9.420;2022-07-18T09:27:44;7.78;;;5.00;;
53269;SDS011;39159;45.634;9.420;2022-07-18T09:32:52;8.18;;;5.03;;
53269;SDS011;39159;45.634;9.420;2022-07-18T09:35:23;11.13;;;4.80;;
53269;SDS011;39159;45.634;9.420;2022-07-18T09:38:13;8.10;;;5.20;;
53269;SDS011;39159;45.634;9.420;2022-07-18T09:40:44;8.60;;;5.32;;
53269;SDS011;39159;45.634;9.420;2022-07-18T09:43:18;6.53;;;5.18;;
53269;SDS011;39159;45.634;9.420;2022-07-18T09:45:45;6.15;;;4.72;;
53269;SDS011;39159;45.634;9.420;2022-07-18T09:48:16;7.40;;;4.80;;
53269;SDS011;39159;45.634;9.420;2022-07-18T09:53:33;6.20;;;4.95;;
53269;SDS011;39159;45.634;9.420;2022-07-18T09:58:26;7.60;;;5.10;;
53269;SDS011;39159;45.634;9.420;2022-07-18T10:00:54;7.70;;;4.95;;
53269;SDS011;39159;45.634;9.420;2022-07-18T10:03:21;11.00;;;4.95;;
53269;SDS011;39159;45.634;9.420;2022-07-18T10:05:48;7.15;;;4.97;;
53269;SDS011;39159;45.634;9.420;2022-07-18T10:08:18;6.70;;;5.20;;
53269;SDS011;39159;45.634;9.420;2022-07-18T10:10:45;5.55;;;4.40;;
53269;SDS011;39159;45.634;9.420;2022-07-18T10:13:13;9.45;;;4.80;;
53269;SDS011;39159;45.634;9.420;2022-07-18T10:15:41;7.65;;;4.68;;
53269;SDS011;39159;45.634;9.420;2022-07-18T10:18:08;7.78;;;3.95;;
53269;SDS011;39159;45.634;9.420;2022-07-18T10:20:37;8.20;;;5.18;;
53269;SDS011;39159;45.634;9.420;2022-07-18T10:29:26;10.45;;;4.65;;
53269;SDS011;39159;45.634;9.420;2022-07-18T10:31:28;8.57;;;4.35;;
53269;SDS011;39159;45.634;9.420;2022-07-18T10:36:39;4.72;;;3.72;;
53269;SDS011;39159;45.634;9.420;2022-07-18T10:39:34;6.88;;;4.10;;
53269;SDS011;39159;45.634;9.420;2022-07-18T10:42:12;4.43;;;3.65;;
53269;SDS011;39159;45.634;9.420;2022-07-18T10:44:39;6.68;;;4.05;;
53269;SDS011;39159;45.634;9.420;2022-07-18T10:47:11;7.80;;;4.05;;
53269;SDS011;39159;45.634;9.420;2022-07-18T11:00:18;6.10;;;4.45;;
53269;SDS011;39159;45.634;9.420;2022-07-18T11:03:06;8.43;;;4.97;;
53269;SDS011;39159;45.634;9.420;2022-07-18T11:05:42;7.97;;;4.60;;
53269;SDS011;39159;45.634;9.420;2022-07-18T11:16:12;6.10;;;4.20;;
53269;SDS011;39159;45.634;9.420;2022-07-18T11:23:41;6.22;;;4.10;;
53269;SDS011;39159;45.634;9.420;2022-07-18T11:26:09;7.40;;;3.45;;
53269;SDS011;39159;45.634;9.420;2022-07-18T11:31:06;7.13;;;3.75;;
53269;SDS011;39159;45.634;9.420;2022-07-18T11:33:35;6.68;;;3.80;;
53269;SDS011;39159;45.634;9.420;2022-07-18T11:36:05;7.07;;;4.07;;
53269;SDS011;39159;45.634;9.420;2022-07-18T11:38:35;9.27;;;3.63;;
53269;SDS011;39159;45.634;9.420;2022-07-18T11:41:03;3.80;;;3.20;;
53269;SDS011;39159;45.634;9.420;2022-07-18T11:43:29;6.90;;;3.70;;
53269;SDS011;39159;45.634;9.420;2022-07-18T11:46:10;6.65;;;3.47;;
53269;SDS011;39159;45.634;9.420;2022-07-18T11:48:37;7.95;;;3.55;;
53269;SDS011;39159;45.634;9.420;2022-07-18T11:51:10;4.88;;;3.55;;
53269;SDS011;39159;45.634;9.420;2022-07-18T11:53:47;8.98;;;4.15;;
53269;SDS011;39159;45.634;9.420;2022-07-18T11:56:15;58.63;;;6.28;;
53269;SDS011;39159;45.634;9.420;2022-07-18T11:58:42;5.75;;;3.70;;
53269;SDS011;39159;45.634;9.420;2022-07-18T12:01:09;20.25;;;4.20;;
53269;SDS011;39159;45.634;9.420;2022-07-18T12:03:36;6.78;;;3.95;;
53269;SDS011;39159;45.634;9.420;2022-07-18T12:06:14;5.72;;;3.75;;
53269;SDS011;39159;45.634;9.420;2022-07-18T12:08:47;4.97;;;4.05;;
53269;SDS011;39159;45.634;9.420;2022-07-18T12:13:46;5.88;;;3.63;;
53269;SDS011;39159;45.634;9.420;2022-07-18T12:16:35;5.90;;;3.50;;
53269;SDS011;39159;45.634;9.420;2022-07-18T12:19:15;7.55;;;3.65;;
53269;SDS011;39159;45.634;9.420;2022-07-18T12:24:26;6.50;;;4.18;;
53269;SDS011;39159;45.634;9.420;2022-07-18T12:27:13;5.90;;;4.30;;
53269;SDS011;39159;45.634;9.420;2022-07-18T12:29:56;9.90;;;4.15;;
53269;SDS011;39159;45.634;9.420;2022-07-18T12:32:24;27.75;;;5.45;;
53269;SDS011;39159;45.634;9.420;2022-07-18T12:34:54;9.13;;;4.03;;
53269;SDS011;39159;45.634;9.420;2022-07-18T12:37:28;6.32;;;4.45;;
53269;SDS011;39159;45.634;9.420;2022-07-18T12:39:58;5.70;;;4.07;;
53269;SDS011;39159;45.634;9.420;2022-07-18T12:42:29;7.20;;;4.53;;
53269;SDS011;39159;45.634;9.420;2022-07-18T12:45:02;8.98;;;5.00;;
53269;SDS011;39159;45.634;9.420;2022-07-18T12:47:29;10.60;;;4.72;;
53269;SDS011;39159;45.634;9.420;2022-07-18T12:49:54;13.25;;;4.20;;
53269;SDS011;39159;45.634;9.420;2022-07-18T12:52:20;8.52;;;4.30;;
53269;SDS011;39159;45.634;9.420;2022-07-18T12:54:46;7.40;;;4.55;;
53269;SDS011;39159;45.634;9.420;2022-07-18T12:57:12;5.45;;;4.25;;
53269;SDS011;39159;45.634;9.420;2022-07-18T12:59:38;6.22;;;4.28;;
53269;SDS011;39159;45.634;9.420;2022-07-18T13:02:03;9.98;;;4.70;;
53269;SDS011;39159;45.634;9.420;2022-07-18T13:04:29;4.85;;;4.38;;
53269;SDS011;39159;45.634;9.420;2022-07-18T13:06:55;9.25;;;4.43;;
53269;SDS011;39159;45.634;9.420;2022-07-18T13:09:21;6.82;;;4.30;;
53269;SDS011;39159;45.634;9.420;2022-07-18T13:11:47;10.70;;;4.90;;
53269;SDS011;39159;45.634;9.420;2022-07-18T13:14:16;7.18;;;3.92;;
53269;SDS011;39159;45.634;9.420;2022-07-18T13:16:42;8.90;;;4.93;;
53269;SDS011;39159;45.634;9.420;2022-07-18T13:19:10;6.20;;;4.15;;
53269;SDS011;39159;45.634;9.420;2022-07-18T13:21:36;6.82;;;4.70;;
53269;SDS011;39159;45.634;9.420;2022-07-18T13:24:02;7.15;;;4.43;;
53269;SDS011;39159;45.634;9.420;2022-07-18T13:26:28;22.08;;;4.35;;
53269;SDS011;39159;45.634;9.420;2022-07-18T13:28:54;8.40;;;4.95;;
53269;SDS011;39159;45.634;9.420;2022-07-18T13:31:19;7.85;;;4.47;;
53269;SDS011;39159;45.634;9.420;2022-07-18T13:33:45;5.10;;;4.10;;
53269;SDS011;39159;45.634;9.420;2022-07-18T13:36:12;5.90;;;4.30;;
53269;SDS011;39159;45.634;9.420;2022-07-18T13:38:38;7.47;;;4.20;;
53269;SDS011;39159;45.634;9.420;2022-07-18T13:41:04;6.28;;;4.22;;
53269;SDS011;39159;45.634;9.420;2022-07-18T13:43:30;8.15;;;4.35;;
53269;SDS011;39159;45.634;9.420;2022-07-18T13:45:55;5.75;;;4.50;;
53269;SDS011;39159;45.634;9.420;2022-07-18T13:48:21;4.70;;;4.13;;
53269;SDS011;39159;45.634;9.420;2022-07-18T13:50:46;7.57;;;4.43;;
53269;SDS011;39159;45.634;9.420;2022-07-18T13:53:12;5.80;;;4.50;;
53269;SDS011;39159;45.634;9.420;2022-07-18T13:55:37;6.28;;;4.25;;
53269;SDS011;39159;45.634;9.420;2022-07-18T13:58:03;6.95;;;4.32;;
53269;SDS011;39159;45.634;9.420;2022-07-18T14:00:28;9.57;;;4.60;;
53269;SDS011;39159;45.634;9.420;2022-07-18T14:02:54;6.50;;;4.45;;
53269;SDS011;39159;45.634;9.420;2022-07-18T14:05:19;4.90;;;4.30;;
53269;SDS011;39159;45.634;9.420;2022-07-18T14:07:45;6.05;;;4.57;;
53269;SDS011;39159;45.634;9.420;2022-07-18T14:10:11;8.00;;;4.30;;
53269;SDS011;39159;45.634;9.420;2022-07-18T14:12:38;6.10;;;4.57;;
53269;SDS011;39159;45.634;9.420;2022-07-18T14:15:04;6.65;;;4.40;;
53269;SDS011;39159;45.634;9.420;2022-07-18T14:17:30;7.32;;;4.85;;
53269;SDS011;39159;45.634;9.420;2022-07-18T14:19:58;5.95;;;4.50;;
53269;SDS011;39159;45.634;9.420;2022-07-18T14:22:23;4.75;;;3.65;;
53269;SDS011;39159;45.634;9.420;2022-07-18T14:24:49;11.48;;;4.38;;
53269;SDS011;39159;45.634;9.420;2022-07-18T14:27:14;7.68;;;4.63;;
53269;SDS011;39159;45.634;9.420;2022-07-18T14:29:40;7.13;;;4.57;;
53269;SDS011;39159;45.634;9.420;2022-07-18T14:32:06;6.70;;;4.95;;
53269;SDS011;39159;45.634;9.420;2022-07-18T14:34:32;8.60;;;5.00;;
53269;SDS011;39159;45.634;9.420;2022-07-18T14:36:58;8.98;;;4.63;;
53269;SDS011;39159;45.634;9.420;2022-07-18T14:39:24;9.38;;;4.88;;
53269;SDS011;39159;45.634;9.420;2022-07-18T14:41:49;5.97;;;4.57;;
53269;SDS011;39159;45.634;9.420;2022-07-18T14:44:14;8.07;;;4.47;;
53269;SDS011;39159;45.634;9.420;2022-07-18T14:46:40;7.80;;;4.78;;
53269;SDS011;39159;45.634;9.420;2022-07-18T14:49:05;9.07;;;5.00;;
53269;SDS011;39159;45.634;9.420;2022-07-18T14:51:31;6.18;;;4.50;;
53269;SDS011;39159;45.634;9.420;2022-07-18T14:53:56;9.65;;;4.68;;
53269;SDS011;39159;45.634;9.420;2022-07-18T14:56:22;10.52;;;4.63;;
53269;SDS011;39159;45.634;9.420;2022-07-18T14:58:50;8.45;;;4.40;;
53269;SDS011;39159;45.634;9.420;2022-07-18T15:01:15;7.72;;;5.38;;
53269;SDS011;39159;45.634;9.420;2022-07-18T15:03:44;7.38;;;4.80;;
53269;SDS011;39159;45.634;9.420;2022-07-18T15:06:10;6.50;;;5.07;;
53269;SDS011;39159;45.634;9.420;2022-07-18T15:08:36;7.97;;;4.70;;
53269;SDS011;39159;45.634;9.420;2022-07-18T15:11:02;7.10;;;5.22;;
53269;SDS011;39159;45.634;9.420;2022-07-18T15:13:27;16.08;;;4.72;;
53269;SDS011;39159;45.634;9.420;2022-07-18T15:15:53;6.22;;;4.80;;
53269;SDS011;39159;45.634;9.420;2022-07-18T15:18:18;6.38;;;4.80;;
53269;SDS011;39159;45.634;9.420;2022-07-18T15:20:44;9.07;;;5.35;;
53269;SDS011;39159;45.634;9.420;2022-07-18T15:23:09;13.57;;;5.55;;
53269;SDS011;39159;45.634;9.420;2022-07-18T15:25:35;5.13;;;4.60;;
53269;SDS011;39159;45.634;9.420;2022-07-18T15:28:00;10.43;;;5.53;;
53269;SDS011;39159;45.634;9.420;2022-07-18T15:30:27;6.18;;;5.07;;